createdAt,value
2017-08-30T00:01:36.809Z,20.13
2017-08-30T00:04:04.448Z,20.47
2017-08-30T00:06:31.924Z,21.17
2017-08-30T00:08:59.379Z,20.43
2017-08-30T00:11:26.873Z,21.53
2017-08-30T00:13:54.338Z,22.10
2017-08-30T00:16:21.793Z,20.40
2017-08-30T00:18:49.267Z,20.60
2017-08-30T00:21:16.749Z,21.30
2017-08-30T00:23:44.284Z,19.80
2017-08-30T00:26:29.429Z,20.03
2017-08-30T00:28:56.884Z,19.33
2017-08-30T00:31:24.424Z,20.33
2017-08-30T00:33:51.971Z,19.63
2017-08-30T00:36:19.512Z,19.30
2017-08-30T00:38:47.067Z,19.17
2017-08-30T00:41:14.531Z,18.67
2017-08-30T00:43:41.989Z,18.20
2017-08-30T00:46:09.444Z,19.43
2017-08-30T00:48:37.028Z,19.40
2017-08-30T00:51:04.586Z,20.80
2017-08-30T00:53:32.119Z,18.87
2017-08-30T00:55:59.757Z,19.63
2017-08-30T00:58:27.215Z,18.97
2017-08-30T01:00:54.752Z,23.00
2017-08-30T01:03:22.396Z,18.80
2017-08-30T01:05:49.936Z,20.90
2017-08-30T01:08:17.480Z,18.87
2017-08-30T01:10:44.975Z,18.17
2017-08-30T01:13:12.456Z,19.63
2017-08-30T01:15:39.915Z,18.53
2017-08-30T01:18:07.407Z,19.57
2017-08-30T01:20:34.868Z,19.23
2017-08-30T01:23:02.427Z,17.70
2017-08-30T01:25:29.924Z,19.07
2017-08-30T01:27:57.401Z,18.60
2017-08-30T01:30:24.856Z,17.73
2017-08-30T01:32:52.580Z,17.73
2017-08-30T01:35:20.144Z,18.83
2017-08-30T01:37:47.693Z,19.90
2017-08-30T01:40:15.231Z,19.47
2017-08-30T01:42:42.780Z,19.60
2017-08-30T01:45:10.236Z,24.07
2017-08-30T01:47:37.759Z,20.60
2017-08-30T01:50:05.308Z,17.80
2017-08-30T01:52:32.853Z,19.03
2017-08-30T01:55:00.395Z,19.33
2017-08-30T01:57:28.620Z,18.43
2017-08-30T01:59:56.195Z,22.60
2017-08-30T02:02:23.655Z,17.50
2017-08-30T02:04:51.871Z,20.47
2017-08-30T02:07:19.360Z,17.27
2017-08-30T02:09:46.820Z,19.10
2017-08-30T02:12:14.341Z,22.47
2017-08-30T02:14:41.867Z,18.20
2017-08-30T02:17:09.407Z,18.00
2017-08-30T02:19:37.059Z,17.53
2017-08-30T02:22:04.604Z,20.23
2017-08-30T02:24:32.147Z,18.20
2017-08-30T02:26:59.682Z,20.67
2017-08-30T02:29:27.235Z,19.80
2017-08-30T02:31:54.768Z,17.40
2017-08-30T02:34:22.329Z,16.23
2017-08-30T02:36:49.779Z,16.80
2017-08-30T02:39:17.239Z,17.00
2017-08-30T02:41:44.740Z,17.67
2017-08-30T02:44:12.263Z,17.40
2017-08-30T02:46:39.875Z,17.27
2017-08-30T02:49:07.336Z,16.67
2017-08-30T02:51:34.795Z,19.00
2017-08-30T02:54:02.259Z,15.60
2017-08-30T02:56:29.927Z,17.17
2017-08-30T02:58:57.443Z,16.60
2017-08-30T03:01:24.983Z,17.30
2017-08-30T03:03:52.635Z,17.63
2017-08-30T03:06:20.177Z,17.30
2017-08-30T03:08:47.719Z,21.00
2017-08-30T03:11:15.364Z,16.90
2017-08-30T03:13:42.909Z,16.50
2017-08-30T03:16:10.452Z,18.57
2017-08-30T03:18:38.000Z,18.93
2017-08-30T03:21:05.459Z,16.47
2017-08-30T03:23:32.919Z,17.93
2017-08-30T03:26:00.420Z,18.03
2017-08-30T03:28:28.072Z,16.57
2017-08-30T03:30:55.613Z,16.33
2017-08-30T03:33:23.156Z,16.97
2017-08-30T03:35:50.648Z,17.00
2017-08-30T03:38:18.152Z,15.90
2017-08-30T03:40:45.613Z,17.33
2017-08-30T03:43:13.120Z,16.17
2017-08-30T03:45:40.580Z,16.93
2017-08-30T03:48:08.031Z,16.80
2017-08-30T03:50:35.819Z,16.80
2017-08-30T03:53:03.278Z,16.43
2017-08-30T03:55:30.827Z,16.30
2017-08-30T03:57:58.311Z,17.23
2017-08-30T04:00:25.807Z,17.37
2017-08-30T04:02:53.356Z,17.00
2017-08-30T04:05:20.897Z,18.30
2017-08-30T04:07:48.435Z,17.40
2017-08-30T04:10:15.980Z,17.77
2017-08-30T04:12:43.452Z,16.17
2017-08-30T04:15:10.932Z,19.27
2017-08-30T04:17:38.508Z,16.87
2017-08-30T04:20:05.973Z,16.53
2017-08-30T04:22:33.531Z,19.70
2017-08-30T04:25:01.240Z,17.47
2017-08-30T04:27:28.787Z,18.53
2017-08-30T04:29:56.255Z,17.17
2017-08-30T04:32:23.800Z,18.80
2017-08-30T04:34:51.352Z,17.53
2017-08-30T04:37:19.191Z,21.30
2017-08-30T04:39:46.680Z,17.63
2017-08-30T04:42:14.175Z,17.27
2017-08-30T04:44:41.756Z,19.37
2017-08-30T04:47:09.264Z,19.40
2017-08-30T04:49:36.723Z,17.20
2017-08-30T04:52:04.205Z,18.63
2017-08-30T04:54:31.763Z,18.23
2017-08-30T04:56:59.219Z,18.67
2017-08-30T04:59:27.600Z,18.53
2017-08-30T05:01:55.059Z,20.47
2017-08-30T05:04:22.560Z,18.70
2017-08-30T05:06:50.195Z,21.23
2017-08-30T05:09:17.740Z,23.53
2017-08-30T05:11:45.285Z,18.80
2017-08-30T05:14:13.298Z,18.83
2017-08-30T05:16:40.763Z,22.00
2017-08-30T05:19:08.327Z,29.43
2017-08-30T05:21:35.869Z,28.37
2017-08-30T05:24:03.451Z,23.17
2017-08-30T05:26:30.962Z,18.37
2017-08-30T05:28:58.504Z,22.57
2017-08-30T05:31:26.761Z,20.87
2017-08-30T05:33:54.291Z,19.33
2017-08-30T05:36:21.844Z,22.13
2017-08-30T05:38:49.388Z,23.50
2017-08-30T05:41:16.941Z,20.37
2017-08-30T05:43:44.393Z,19.70
2017-08-30T05:46:11.847Z,22.27
2017-08-30T05:48:39.376Z,20.67
2017-08-30T05:51:06.832Z,21.20
2017-08-30T05:53:34.287Z,21.20
2017-08-30T05:56:01.905Z,21.17
2017-08-30T05:58:29.443Z,23.93
2017-08-30T06:00:56.899Z,22.37
2017-08-30T06:03:24.528Z,19.33
2017-08-30T06:05:51.985Z,23.30
2017-08-30T06:08:19.444Z,22.00
2017-08-30T06:10:47.163Z,25.53
2017-08-30T06:13:14.626Z,20.97
2017-08-30T06:15:42.149Z,25.77
2017-08-30T06:18:09.770Z,22.90
2017-08-30T06:20:37.344Z,24.13
2017-08-30T06:23:04.801Z,24.07
2017-08-30T06:25:32.324Z,22.30
2017-08-30T06:27:59.867Z,23.70
2017-08-30T06:30:27.327Z,23.80
2017-08-30T06:32:54.795Z,23.70
2017-08-30T06:35:22.252Z,27.37
2017-08-30T06:37:49.841Z,22.63
2017-08-30T06:40:17.376Z,23.43
2017-08-30T06:42:44.919Z,23.73
2017-08-30T06:45:12.388Z,24.23
2017-08-30T06:47:39.913Z,24.27
2017-08-30T06:50:07.404Z,24.07
2017-08-30T06:52:34.915Z,23.40
2017-08-30T06:55:02.456Z,22.70
2017-08-30T06:57:29.963Z,24.40
2017-08-30T06:59:57.435Z,24.17
2017-08-30T07:02:24.984Z,23.70
2017-08-30T07:04:52.447Z,23.50
2017-08-30T07:07:19.972Z,23.70
2017-08-30T07:09:47.521Z,26.03
2017-08-30T07:12:15.064Z,24.83
2017-08-30T07:14:42.599Z,23.73
2017-08-30T07:17:10.068Z,30.77
2017-08-30T07:19:37.524Z,25.43
2017-08-30T07:22:05.030Z,23.70
2017-08-30T07:24:32.572Z,23.17
2017-08-30T07:27:00.124Z,23.67
2017-08-30T07:29:27.655Z,28.10
2017-08-30T07:31:55.204Z,28.33
2017-08-30T07:34:22.740Z,26.43
2017-08-30T07:36:50.389Z,24.23
2017-08-30T07:39:18.036Z,23.70
2017-08-30T07:41:45.584Z,30.50
2017-08-30T07:44:13.128Z,22.67
2017-08-30T07:46:40.667Z,21.87
2017-08-30T07:49:08.161Z,26.77
2017-08-30T07:51:35.620Z,24.13
2017-08-30T07:54:03.186Z,23.10
2017-08-30T07:56:30.928Z,23.67
2017-08-30T07:58:58.385Z,25.47
2017-08-30T08:01:25.844Z,32.50
2017-08-30T08:03:53.355Z,34.53
2017-08-30T08:06:20.820Z,29.17
2017-08-30T08:08:48.275Z,33.03
2017-08-30T08:11:15.919Z,25.03
2017-08-30T08:13:43.432Z,28.47
2017-08-30T08:16:10.888Z,31.40
2017-08-30T08:18:38.420Z,35.27
2017-08-30T08:21:05.955Z,28.07
2017-08-30T08:23:33.600Z,32.37
2017-08-30T08:26:01.059Z,25.33
2017-08-30T08:28:28.585Z,24.17
2017-08-30T08:30:56.334Z,24.73
2017-08-30T08:33:23.875Z,21.93
2017-08-30T08:35:51.425Z,34.13
2017-08-30T08:38:18.970Z,30.80
2017-08-30T08:40:46.511Z,27.83
2017-08-30T08:43:14.063Z,30.10
2017-08-30T08:45:41.819Z,24.17
2017-08-30T08:48:10.063Z,23.30
2017-08-30T08:50:38.306Z,31.50
2017-08-30T08:53:05.852Z,24.33
2017-08-30T08:55:33.396Z,23.17
2017-08-30T08:58:00.852Z,22.70
2017-08-30T09:00:28.376Z,20.17
2017-08-30T09:02:55.919Z,19.20
2017-08-30T09:05:23.478Z,19.80
2017-08-30T09:07:51.008Z,20.00
2017-08-30T09:10:18.527Z,20.47
2017-08-30T09:12:46.004Z,18.77
2017-08-30T09:15:13.544Z,18.37
2017-08-30T09:17:41.089Z,19.20
2017-08-30T09:20:08.624Z,18.30
2017-08-30T09:22:36.101Z,19.73
2017-08-30T09:25:03.637Z,19.67
2017-08-30T09:27:31.152Z,18.57
2017-08-30T09:29:58.802Z,17.07
2017-08-30T09:32:26.344Z,16.80
2017-08-30T09:34:53.808Z,17.13
2017-08-30T09:37:21.328Z,17.77
2017-08-30T09:39:48.867Z,18.87
2017-08-30T09:42:16.420Z,19.47
2017-08-30T09:44:43.872Z,17.37
2017-08-30T09:47:11.344Z,24.90
2017-08-30T09:49:38.840Z,19.47
2017-08-30T09:52:06.383Z,20.70
2017-08-30T09:54:33.923Z,22.50
2017-08-30T09:57:01.464Z,21.07
2017-08-30T09:59:29.211Z,21.87
2017-08-30T10:01:56.675Z,24.50
2017-08-30T10:04:24.135Z,26.47
2017-08-30T10:06:51.780Z,25.10
2017-08-30T10:09:19.283Z,27.33
2017-08-30T10:11:46.739Z,27.10
2017-08-30T10:14:14.212Z,28.80
2017-08-30T10:16:41.671Z,28.23
2017-08-30T10:19:09.152Z,29.60
2017-08-30T10:21:36.635Z,31.23
2017-08-30T10:24:04.124Z,32.73
2017-08-30T10:26:31.679Z,28.33
2017-08-30T10:28:59.436Z,29.17
2017-08-30T10:31:26.981Z,30.30
2017-08-30T10:33:54.432Z,29.33
2017-08-30T10:36:21.955Z,31.87
2017-08-30T10:38:49.699Z,36.47
2017-08-30T10:41:17.251Z,32.07
2017-08-30T10:43:44.792Z,31.73
2017-08-30T10:46:13.197Z,30.07
2017-08-30T10:48:40.710Z,30.97
2017-08-30T10:51:08.251Z,31.10
2017-08-30T10:53:35.724Z,29.67
2017-08-30T10:56:03.446Z,31.97
2017-08-30T10:58:30.891Z,27.97
2017-08-30T11:00:58.432Z,28.23
2017-08-30T11:03:25.891Z,31.87
2017-08-30T11:05:53.411Z,28.23
2017-08-30T11:08:20.959Z,28.50
2017-08-30T11:10:48.505Z,28.23
2017-08-30T11:13:15.997Z,28.13
2017-08-30T11:15:43.452Z,28.10
2017-08-30T11:18:10.926Z,25.50
2017-08-30T11:20:38.563Z,28.07
2017-08-30T11:23:06.028Z,29.10
2017-08-30T11:25:33.487Z,25.70
2017-08-30T11:28:00.999Z,26.03
2017-08-30T11:30:28.454Z,24.93
2017-08-30T11:32:55.983Z,24.70
2017-08-30T11:35:23.727Z,26.17
2017-08-30T11:37:51.188Z,24.43
2017-08-30T11:40:18.649Z,27.83
2017-08-30T11:42:46.155Z,24.13
2017-08-30T11:45:13.695Z,25.17
2017-08-30T11:47:41.239Z,23.30
2017-08-30T11:50:08.795Z,22.97
2017-08-30T11:52:36.344Z,24.47
2017-08-30T11:55:04.146Z,22.30
2017-08-30T11:57:31.636Z,20.77
2017-08-30T11:59:59.203Z,20.77
2017-08-30T12:02:26.719Z,19.83
2017-08-30T12:04:54.265Z,20.80
2017-08-30T12:07:21.812Z,20.97
2017-08-30T12:09:49.300Z,20.10
2017-08-30T12:12:16.795Z,21.10
2017-08-30T12:14:44.256Z,20.50
2017-08-30T12:17:11.753Z,21.43
2017-08-30T12:19:39.217Z,21.17
2017-08-30T12:22:06.759Z,19.97
2017-08-30T12:24:34.304Z,20.63
2017-08-30T12:27:01.764Z,21.53
2017-08-30T12:29:29.221Z,21.57
2017-08-30T12:31:56.747Z,21.53
2017-08-30T12:34:24.333Z,21.60
2017-08-30T12:36:57.568Z,20.43
2017-08-30T12:39:30.760Z,20.73
2017-08-30T12:41:58.372Z,25.63
2017-08-30T12:44:25.836Z,21.60
2017-08-30T12:46:53.296Z,23.20
2017-08-30T12:49:21.032Z,23.27
2017-08-30T12:51:48.579Z,23.10
2017-08-30T12:54:16.044Z,21.47
2017-08-30T12:56:43.572Z,24.20
2017-08-30T12:59:11.027Z,21.07
2017-08-30T13:01:38.551Z,23.90
2017-08-30T13:04:06.293Z,21.33
2017-08-30T13:06:33.751Z,22.93
2017-08-30T13:09:01.280Z,22.77
2017-08-30T13:11:28.824Z,24.13
2017-08-30T13:13:56.364Z,22.00
2017-08-30T13:16:23.916Z,24.20
2017-08-30T13:18:52.267Z,22.03
2017-08-30T13:21:19.920Z,23.67
2017-08-30T13:23:47.464Z,20.63
2017-08-30T13:26:15.105Z,23.27
2017-08-30T13:28:42.655Z,21.43
2017-08-30T13:31:10.299Z,22.37
2017-08-30T13:33:37.847Z,23.57
2017-08-30T13:36:05.402Z,25.20
2017-08-30T13:38:32.928Z,26.50
2017-08-30T13:41:00.472Z,22.13
2017-08-30T13:43:27.939Z,22.27
2017-08-30T13:45:55.412Z,24.73
2017-08-30T13:48:22.900Z,22.73
2017-08-30T13:50:50.441Z,23.30
2017-08-30T13:53:17.988Z,24.27
2017-08-30T13:55:45.536Z,24.33
2017-08-30T13:58:13.072Z,25.50
2017-08-30T14:00:40.548Z,25.30
2017-08-30T14:03:08.060Z,25.50
2017-08-30T14:05:35.532Z,25.20
2017-08-30T14:08:03.041Z,22.57
2017-08-30T14:10:30.515Z,23.17
2017-08-30T14:12:58.047Z,20.53
2017-08-30T14:15:25.568Z,22.87
2017-08-30T14:17:53.116Z,22.90
2017-08-30T14:20:20.598Z,23.60
2017-08-30T14:22:48.107Z,23.30
2017-08-30T14:25:15.645Z,27.03
2017-08-30T14:27:43.287Z,23.00
2017-08-30T14:30:10.827Z,20.57
2017-08-30T14:32:38.376Z,20.13
2017-08-30T14:35:05.915Z,24.13
2017-08-30T14:37:33.373Z,22.43
2017-08-30T14:40:00.836Z,24.27
2017-08-30T14:42:28.451Z,24.80
2017-08-30T14:44:55.995Z,23.17
2017-08-30T14:47:24.219Z,22.17
2017-08-30T14:49:51.892Z,22.90
2017-08-30T14:52:19.448Z,20.73
2017-08-30T14:54:46.985Z,21.23
2017-08-30T14:57:14.478Z,23.47
2017-08-30T14:59:41.940Z,22.53
2017-08-30T15:02:09.402Z,24.87
2017-08-30T15:04:36.950Z,22.73
2017-08-30T15:07:04.448Z,23.60
2017-08-30T15:09:31.896Z,24.73
2017-08-30T15:11:59.391Z,21.73
2017-08-30T15:14:27.607Z,20.47
2017-08-30T15:16:55.178Z,24.73
2017-08-30T15:19:22.640Z,24.37
2017-08-30T15:21:50.175Z,22.17
2017-08-30T15:24:17.712Z,23.80
2017-08-30T15:26:45.260Z,27.63
2017-08-30T15:29:12.895Z,23.90
2017-08-30T15:31:40.443Z,27.23
2017-08-30T15:34:07.988Z,22.67
2017-08-30T15:36:35.629Z,25.10
2017-08-30T15:39:03.084Z,27.80
2017-08-30T15:41:30.719Z,23.07
2017-08-30T15:43:58.199Z,23.80
2017-08-30T15:46:25.699Z,24.37
2017-08-30T15:48:53.155Z,22.50
2017-08-30T15:51:20.689Z,26.33
2017-08-30T15:53:48.152Z,23.97
2017-08-30T15:56:16.395Z,22.80
2017-08-30T15:58:44.035Z,28.50
2017-08-30T16:01:11.584Z,24.23
2017-08-30T16:03:39.121Z,28.07
2017-08-30T16:06:06.765Z,25.43
2017-08-30T16:08:34.232Z,25.17
2017-08-30T16:11:01.692Z,24.83
2017-08-30T16:13:29.175Z,28.30
2017-08-30T16:15:56.736Z,27.00
2017-08-30T16:18:24.276Z,31.40
2017-08-30T16:20:51.831Z,25.60
2017-08-30T16:23:19.289Z,25.77
2017-08-30T16:25:46.788Z,28.13
2017-08-30T16:28:14.431Z,28.37
2017-08-30T16:30:41.981Z,32.17
2017-08-30T16:33:09.435Z,31.00
2017-08-30T16:35:37.173Z,30.87
2017-08-30T16:38:04.648Z,29.30
2017-08-30T16:40:32.103Z,28.03
2017-08-30T16:42:59.580Z,30.43
2017-08-30T16:45:27.124Z,31.17
2017-08-30T16:47:54.591Z,31.53
2017-08-30T16:50:22.314Z,34.90
2017-08-30T16:52:51.244Z,34.80
2017-08-30T16:55:18.732Z,37.57
2017-08-30T16:57:46.479Z,37.03
2017-08-30T17:00:13.935Z,34.87
2017-08-30T17:02:41.391Z,33.03
2017-08-30T17:05:08.861Z,41.27
2017-08-30T17:07:36.348Z,33.90
2017-08-30T17:10:03.813Z,35.87
2017-08-30T17:12:31.455Z,37.17
2017-08-30T17:14:58.976Z,34.00
2017-08-30T17:17:26.432Z,40.13
2017-08-30T17:19:54.013Z,35.70
2017-08-30T17:22:21.495Z,36.13
2017-08-30T17:24:49.044Z,36.67
2017-08-30T17:27:17.413Z,37.23
2017-08-30T17:29:45.785Z,37.40
2017-08-30T17:32:13.248Z,36.37
2017-08-30T17:34:40.711Z,37.07
2017-08-30T17:37:13.935Z,35.83
2017-08-30T17:39:41.482Z,34.03
2017-08-30T17:42:09.018Z,35.17
2017-08-30T17:44:36.559Z,33.93
2017-08-30T17:47:04.113Z,34.30
2017-08-30T17:49:31.559Z,35.93
2017-08-30T17:51:59.088Z,36.53
2017-08-30T17:54:26.629Z,39.40
2017-08-30T17:56:54.207Z,34.57
2017-08-30T17:59:22.901Z,44.37
2017-08-30T18:01:50.352Z,36.90
2017-08-30T18:04:18.136Z,35.50
2017-08-30T18:06:45.681Z,37.20
2017-08-30T18:09:13.136Z,35.67
2017-08-30T18:11:41.387Z,31.67
2017-08-30T18:14:08.932Z,34.00
2017-08-30T18:16:36.423Z,34.90
2017-08-30T18:19:03.877Z,34.73
2017-08-30T18:21:31.356Z,36.03
2017-08-30T18:23:58.903Z,37.50
2017-08-30T18:26:26.359Z,41.40
2017-08-30T18:28:54.590Z,34.60
2017-08-30T18:31:22.055Z,37.73
2017-08-30T18:33:49.584Z,41.90
2017-08-30T18:36:20.689Z,40.33
2017-08-30T18:38:51.115Z,41.47
2017-08-30T18:41:18.663Z,41.93
2017-08-30T18:43:46.140Z,43.70
2017-08-30T18:46:13.658Z,43.20
2017-08-30T18:48:41.118Z,43.53
2017-08-30T18:51:08.579Z,47.33
2017-08-30T18:56:03.664Z,44.87
2017-08-30T18:58:31.169Z,47.40
2017-08-30T19:00:58.705Z,41.97
2017-08-30T19:03:26.244Z,44.53
2017-08-30T19:05:54.635Z,43.70
2017-08-30T19:08:22.164Z,51.33
2017-08-30T19:10:49.644Z,43.57
2017-08-30T19:13:17.137Z,45.73
2017-08-30T19:15:44.854Z,48.77
2017-08-30T19:18:12.376Z,42.77
2017-08-30T19:20:41.277Z,43.60
2017-08-30T19:23:08.796Z,43.93
2017-08-30T19:25:36.295Z,50.00
2017-08-30T19:28:03.744Z,43.73
2017-08-30T19:30:32.754Z,47.03
2017-08-30T19:33:00.253Z,47.43
2017-08-30T19:35:27.704Z,46.13
2017-08-30T19:37:55.184Z,46.17
2017-08-30T19:40:22.643Z,53.83
2017-08-30T19:42:50.102Z,56.70
2017-08-30T19:45:17.748Z,42.93
2017-08-30T19:47:45.307Z,21.07
2017-08-30T19:50:12.756Z,19.10
2017-08-30T19:52:40.213Z,10.63
2017-08-30T19:55:07.936Z,10.57
2017-08-30T19:57:35.408Z,12.37
2017-08-30T20:00:03.177Z,13.60
2017-08-30T20:02:30.711Z,13.00
2017-08-30T20:04:58.167Z,12.50
2017-08-30T20:07:25.620Z,11.10
2017-08-30T20:09:53.084Z,12.17
2017-08-30T20:12:20.579Z,12.63
2017-08-30T20:14:48.323Z,12.67
2017-08-30T20:17:17.044Z,10.17
2017-08-30T20:19:44.531Z,9.30
2017-08-30T20:22:12.407Z,8.10
2017-08-30T20:24:40.112Z,8.00
2017-08-30T20:27:07.575Z,11.67
2017-08-30T20:29:35.135Z,8.93
2017-08-30T20:32:03.375Z,9.83
2017-08-30T20:34:30.831Z,9.97
2017-08-30T20:37:01.297Z,12.30
2017-08-30T20:39:28.875Z,9.47
2017-08-30T20:41:56.428Z,9.83
2017-08-30T20:44:23.875Z,15.70
2017-08-30T20:46:51.413Z,18.63
2017-08-30T20:49:18.955Z,18.53
2017-08-30T20:51:46.595Z,16.60
2017-08-30T20:54:16.816Z,17.47
2017-08-30T20:56:48.074Z,14.80
2017-08-30T20:59:15.528Z,13.40
2017-08-30T21:01:46.400Z,14.03
2017-08-30T21:04:13.944Z,16.73
2017-08-30T21:06:41.483Z,10.13
2017-08-30T21:09:09.032Z,14.73
2017-08-30T21:11:36.492Z,13.30
2017-08-30T21:14:04.886Z,14.27
2017-08-30T21:16:32.333Z,14.07
2017-08-30T21:18:59.788Z,13.57
2017-08-30T21:21:27.463Z,13.13
2017-08-30T21:23:55.007Z,16.70
2017-08-30T21:26:22.556Z,14.80
2017-08-30T21:28:50.096Z,12.57
2017-08-30T21:48:37.611Z,10.30
2017-08-30T21:51:05.144Z,10.80
2017-08-30T21:53:32.600Z,12.70
2017-08-30T21:56:00.080Z,10.43
2017-08-30T21:58:27.555Z,14.90
2017-08-30T22:00:55.055Z,9.07
2017-08-30T22:03:22.606Z,12.17
2017-08-30T22:05:50.251Z,7.83
2017-08-30T22:08:17.795Z,8.83
2017-08-30T22:10:45.344Z,8.07
2017-08-30T22:13:12.924Z,13.63
2017-08-30T22:15:40.415Z,7.33
2017-08-30T22:18:08.077Z,9.83
2017-08-30T22:20:35.523Z,7.53
2017-08-30T22:23:02.976Z,7.80
2017-08-30T22:25:30.445Z,8.20
2017-08-30T22:27:57.962Z,9.17
2017-08-30T22:30:25.399Z,6.00
2017-08-30T22:32:52.932Z,7.90
2017-08-30T22:35:20.530Z,6.70
2017-08-30T22:37:48.003Z,7.20
2017-08-30T22:40:15.459Z,8.10
2017-08-30T22:42:42.996Z,7.77
2017-08-30T22:45:10.543Z,9.80
2017-08-30T22:47:38.088Z,10.77
2017-08-30T22:50:05.564Z,13.60
2017-08-30T22:52:33.024Z,9.03
2017-08-30T22:55:00.515Z,10.17
2017-08-30T22:57:28.051Z,10.10
2017-08-30T22:59:55.512Z,10.87
2017-08-30T23:02:23.727Z,12.10
2017-08-30T23:04:51.203Z,13.93
2017-08-30T23:07:18.744Z,14.70
2017-08-30T23:09:46.396Z,14.93
2017-08-30T23:12:13.927Z,16.60
2017-08-30T23:14:41.391Z,21.33
2017-08-30T23:17:08.855Z,22.77
2017-08-30T23:19:36.308Z,23.93
2017-08-30T23:22:03.800Z,27.17
2017-08-30T23:24:31.259Z,24.53
2017-08-30T23:26:58.728Z,29.37
2017-08-30T23:29:26.372Z,31.17
2017-08-30T23:31:53.827Z,37.93
2017-08-30T23:34:21.360Z,37.03
2017-08-30T23:36:48.900Z,44.07
2017-08-30T23:39:16.355Z,44.23
2017-08-30T23:41:44.587Z,49.77
2017-08-30T23:44:12.147Z,53.70
2017-08-30T23:46:39.600Z,50.50
2017-08-30T23:49:07.128Z,58.97
2017-08-30T23:51:34.599Z,57.03
2017-08-30T23:54:02.060Z,57.57
2017-08-30T23:56:29.560Z,58.10
2017-08-30T23:59:01.434Z,58.80
